Harrisburg International Airport
KMDT : now visible

Airfield :











YOU CAN JOIN US ON...

 
LOGIN :

Register | Disclaimer

   EN    FR    IT 

 









Legend :    VFR   Marginal VFR   IFR   Intensive IFR   Very Intensive IFR
Visi :
Ceiling :
>= 8 km
>= 3000ft
5 to 8 km
1000 to 3000 ft
1500m to 5 km
500 to 1000 ft
800 to 1500m
200 to 500 ft
< 800m
< 200 ft
Symbols :   Thunderstorms  Fog  Heavy snow  Heavy precipitations  Wind > 20 kt






- Airport Elevation : 310 ft
- IATA code : MDT


KMDT - Harrisburg International

CURRENT METAR :
  • 120256Z 32013KT 10SM SCT055 01/M10 A3049 RMK AO2 SLP329 T00061100 53018

EXPIRED METARs :
  • 120156Z 30016G20KT 10SM OVC060 01/M11 A3047 RMK AO2 SLP321 T00061106
  • 120056Z 30010KT 10SM SCT080 01/M09 A3046 RMK AO2 SLP319 T00061094

TAF KMDT
Valid from the 12 at 04:00 until the 13 at 00:00 UTC


120338Z 1204/1224 32013KT P6SM SCT060
FM120600 30005KT P6SM SKC



MET'MAP, your aeronautical weather chart ! - Copyright ORBIFLY December 2007 - Disclaimer

ORBIFLY MET'MAP TEAM :

Programming & Development : Alexandra Zaïnal
Concept & original design : Baudouin d'Aumeries
Assistance for programming : Marc-Olivier Méhu
Technical & hardware support : Manuel Goepfert

Contact : metmap@orbifly.com




SOURCES & CREDITS :

   NOAA       Earth
Advisory